sensor_id;sensor_type;location;lat;lon;timestamp;P1;durP1;ratioP1;P2;durP2;ratioP2
10957;SDS011;5531;42.570;23.676;2023-08-06T00:00:43;8.07;;;4.25;;
10957;SDS011;5531;42.570;23.676;2023-08-06T00:03:12;6.35;;;4.03;;
10957;SDS011;5531;42.570;23.676;2023-08-06T00:05:41;8.30;;;4.63;;
10957;SDS011;5531;42.570;23.676;2023-08-06T00:08:10;6.53;;;4.78;;
10957;SDS011;5531;42.570;23.676;2023-08-06T00:10:39;5.82;;;4.25;;
10957;SDS011;5531;42.570;23.676;2023-08-06T00:13:10;6.18;;;4.45;;
10957;SDS011;5531;42.570;23.676;2023-08-06T00:15:39;6.20;;;4.65;;
10957;SDS011;5531;42.570;23.676;2023-08-06T00:18:07;5.50;;;4.60;;
10957;SDS011;5531;42.570;23.676;2023-08-06T00:20:38;6.43;;;4.90;;
10957;SDS011;5531;42.570;23.676;2023-08-06T00:23:07;5.88;;;4.78;;
10957;SDS011;5531;42.570;23.676;2023-08-06T00:25:36;6.43;;;4.75;;
10957;SDS011;5531;42.570;23.676;2023-08-06T00:28:05;6.40;;;5.00;;
10957;SDS011;5531;42.570;23.676;2023-08-06T00:30:36;5.68;;;4.50;;
10957;SDS011;5531;42.570;23.676;2023-08-06T00:33:04;5.82;;;5.00;;
10957;SDS011;5531;42.570;23.676;2023-08-06T00:35:33;5.78;;;4.85;;
10957;SDS011;5531;42.570;23.676;2023-08-06T00:38:01;5.85;;;5.20;;
10957;SDS011;5531;42.570;23.676;2023-08-06T00:40:30;5.47;;;4.93;;
10957;SDS011;5531;42.570;23.676;2023-08-06T00:42:58;5.88;;;5.38;;
10957;SDS011;5531;42.570;23.676;2023-08-06T00:45:27;6.30;;;5.70;;
10957;SDS011;5531;42.570;23.676;2023-08-06T00:47:58;21.00;;;6.47;;
10957;SDS011;5531;42.570;23.676;2023-08-06T00:50:27;63.05;;;8.15;;
10957;SDS011;5531;42.570;23.676;2023-08-06T00:52:56;11.98;;;6.50;;
10957;SDS011;5531;42.570;23.676;2023-08-06T00:55:24;6.53;;;5.90;;
10957;SDS011;5531;42.570;23.676;2023-08-06T00:57:53;8.10;;;6.57;;
10957;SDS011;5531;42.570;23.676;2023-08-06T01:00:23;7.65;;;6.65;;
10957;SDS011;5531;42.570;23.676;2023-08-06T01:02:52;7.93;;;6.90;;
10957;SDS011;5531;42.570;23.676;2023-08-06T01:05:23;8.60;;;7.07;;
10957;SDS011;5531;42.570;23.676;2023-08-06T01:07:56;8.55;;;7.72;;
10957;SDS011;5531;42.570;23.676;2023-08-06T01:10:37;7.60;;;6.90;;
10957;SDS011;5531;42.570;23.676;2023-08-06T01:13:10;12.70;;;8.15;;
10957;SDS011;5531;42.570;23.676;2023-08-06T01:15:41;8.05;;;7.22;;
10957;SDS011;5531;42.570;23.676;2023-08-06T01:18:12;12.52;;;7.55;;
10957;SDS011;5531;42.570;23.676;2023-08-06T01:20:43;9.65;;;8.70;;
10957;SDS011;5531;42.570;23.676;2023-08-06T01:23:12;9.40;;;8.50;;
10957;SDS011;5531;42.570;23.676;2023-08-06T01:25:42;10.80;;;8.80;;
10957;SDS011;5531;42.570;23.676;2023-08-06T01:28:13;10.02;;;9.02;;
10957;SDS011;5531;42.570;23.676;2023-08-06T01:30:44;13.05;;;9.20;;
10957;SDS011;5531;42.570;23.676;2023-08-06T01:33:14;11.35;;;8.82;;
10957;SDS011;5531;42.570;23.676;2023-08-06T01:35:47;9.38;;;8.45;;
10957;SDS011;5531;42.570;23.676;2023-08-06T01:38:16;10.38;;;9.07;;
10957;SDS011;5531;42.570;23.676;2023-08-06T01:40:45;11.48;;;9.52;;
10957;SDS011;5531;42.570;23.676;2023-08-06T01:43:13;10.68;;;9.32;;
10957;SDS011;5531;42.570;23.676;2023-08-06T01:45:42;11.48;;;9.75;;
10957;SDS011;5531;42.570;23.676;2023-08-06T01:48:10;9.90;;;9.00;;
10957;SDS011;5531;42.570;23.676;2023-08-06T01:50:39;10.50;;;9.50;;
10957;SDS011;5531;42.570;23.676;2023-08-06T01:53:10;10.90;;;9.43;;
10957;SDS011;5531;42.570;23.676;2023-08-06T01:55:39;14.07;;;10.10;;
10957;SDS011;5531;42.570;23.676;2023-08-06T01:58:07;10.73;;;9.65;;
10957;SDS011;5531;42.570;23.676;2023-08-06T02:00:36;10.70;;;9.65;;
10957;SDS011;5531;42.570;23.676;2023-08-06T02:03:04;11.82;;;10.65;;
10957;SDS011;5531;42.570;23.676;2023-08-06T02:05:33;12.55;;;9.30;;
10957;SDS011;5531;42.570;23.676;2023-08-06T02:08:01;12.80;;;10.30;;
10957;SDS011;5531;42.570;23.676;2023-08-06T02:10:32;10.00;;;9.00;;
10957;SDS011;5531;42.570;23.676;2023-08-06T02:13:01;10.18;;;9.18;;
10957;SDS011;5531;42.570;23.676;2023-08-06T02:15:29;8.40;;;7.70;;
10957;SDS011;5531;42.570;23.676;2023-08-06T02:17:58;8.70;;;7.85;;
10957;SDS011;5531;42.570;23.676;2023-08-06T02:20:26;8.57;;;7.70;;
10957;SDS011;5531;42.570;23.676;2023-08-06T02:22:55;9.05;;;8.15;;
10957;SDS011;5531;42.570;23.676;2023-08-06T02:25:24;8.68;;;7.78;;
10957;SDS011;5531;42.570;23.676;2023-08-06T02:27:55;8.90;;;7.47;;
10957;SDS011;5531;42.570;23.676;2023-08-06T02:30:23;8.45;;;7.05;;
10957;SDS011;5531;42.570;23.676;2023-08-06T02:32:52;7.82;;;7.03;;
10957;SDS011;5531;42.570;23.676;2023-08-06T02:35:20;8.20;;;7.38;;
10957;SDS011;5531;42.570;23.676;2023-08-06T02:37:49;8.52;;;7.32;;
10957;SDS011;5531;42.570;23.676;2023-08-06T02:40:17;7.97;;;7.18;;
10957;SDS011;5531;42.570;23.676;2023-08-06T02:42:46;8.52;;;7.20;;
10957;SDS011;5531;42.570;23.676;2023-08-06T02:45:17;8.73;;;7.63;;
10957;SDS011;5531;42.570;23.676;2023-08-06T02:47:46;7.57;;;6.88;;
10957;SDS011;5531;42.570;23.676;2023-08-06T02:50:14;7.93;;;7.22;;
10957;SDS011;5531;42.570;23.676;2023-08-06T02:52:43;8.50;;;6.90;;
10957;SDS011;5531;42.570;23.676;2023-08-06T02:55:11;8.07;;;7.10;;
10957;SDS011;5531;42.570;23.676;2023-08-06T02:57:40;8.35;;;7.55;;
10957;SDS011;5531;42.570;23.676;2023-08-06T03:00:09;9.30;;;7.80;;
10957;SDS011;5531;42.570;23.676;2023-08-06T03:02:40;10.27;;;8.77;;
10957;SDS011;5531;42.570;23.676;2023-08-06T03:05:08;219.10;;;15.38;;
10957;SDS011;5531;42.570;23.676;2023-08-06T03:07:37;155.48;;;13.85;;
10957;SDS011;5531;42.570;23.676;2023-08-06T03:10:06;252.45;;;17.20;;
10957;SDS011;5531;42.570;23.676;2023-08-06T03:12:35;377.80;;;21.27;;
10957;SDS011;5531;42.570;23.676;2023-08-06T03:15:04;581.50;;;24.17;;
10957;SDS011;5531;42.570;23.676;2023-08-06T03:17:32;1025.78;;;36.22;;
10957;SDS011;5531;42.570;23.676;2023-08-06T03:20:04;639.63;;;22.80;;
10957;SDS011;5531;42.570;23.676;2023-08-06T03:22:33;430.15;;;19.33;;
10957;SDS011;5531;42.570;23.676;2023-08-06T03:25:01;604.28;;;22.58;;
10957;SDS011;5531;42.570;23.676;2023-08-06T03:27:30;561.13;;;24.92;;
10957;SDS011;5531;42.570;23.676;2023-08-06T03:29:58;147.57;;;14.10;;
10957;SDS011;5531;42.570;23.676;2023-08-06T03:35:27;11.40;;;5.35;;
10957;SDS011;5531;42.570;23.676;2023-08-06T03:37:55;15.40;;;5.07;;
10957;SDS011;5531;42.570;23.676;2023-08-06T03:40:26;3.92;;;3.38;;
10957;SDS011;5531;42.570;23.676;2023-08-06T03:42:56;12.77;;;5.05;;
10957;SDS011;5531;42.570;23.676;2023-08-06T03:45:24;4.68;;;4.28;;
10957;SDS011;5531;42.570;23.676;2023-08-06T03:47:53;16.75;;;5.63;;
10957;SDS011;5531;42.570;23.676;2023-08-06T03:50:21;8.30;;;5.75;;
10957;SDS011;5531;42.570;23.676;2023-08-06T03:52:53;6.30;;;5.70;;
10957;SDS011;5531;42.570;23.676;2023-08-06T03:55:21;6.03;;;5.45;;
10957;SDS011;5531;42.570;23.676;2023-08-06T03:57:50;5.97;;;5.25;;
10957;SDS011;5531;42.570;23.676;2023-08-06T04:00:18;6.22;;;5.28;;
10957;SDS011;5531;42.570;23.676;2023-08-06T04:02:47;11.48;;;5.22;;
10957;SDS011;5531;42.570;23.676;2023-08-06T04:05:16;10.20;;;5.25;;
10957;SDS011;5531;42.570;23.676;2023-08-06T04:07:45;18.58;;;6.05;;
10957;SDS011;5531;42.570;23.676;2023-08-06T04:10:16;6.78;;;4.88;;
10957;SDS011;5531;42.570;23.676;2023-08-06T04:12:45;6.10;;;4.60;;
10957;SDS011;5531;42.570;23.676;2023-08-06T04:15:13;7.00;;;5.40;;
10957;SDS011;5531;42.570;23.676;2023-08-06T04:17:42;5.82;;;4.93;;
10957;SDS011;5531;42.570;23.676;2023-08-06T04:20:10;5.10;;;4.60;;
10957;SDS011;5531;42.570;23.676;2023-08-06T04:22:39;5.60;;;5.00;;
10957;SDS011;5531;42.570;23.676;2023-08-06T04:25:08;6.75;;;5.10;;
10957;SDS011;5531;42.570;23.676;2023-08-06T04:27:40;6.85;;;5.30;;
10957;SDS011;5531;42.570;23.676;2023-08-06T04:30:10;9.27;;;5.63;;
10957;SDS011;5531;42.570;23.676;2023-08-06T04:32:38;6.78;;;4.70;;
10957;SDS011;5531;42.570;23.676;2023-08-06T04:35:07;6.28;;;5.40;;
10957;SDS011;5531;42.570;23.676;2023-08-06T04:37:36;7.30;;;5.18;;
10957;SDS011;5531;42.570;23.676;2023-08-06T04:40:05;5.93;;;5.20;;
10957;SDS011;5531;42.570;23.676;2023-08-06T04:42:34;5.63;;;5.13;;
10957;SDS011;5531;42.570;23.676;2023-08-06T04:45:06;6.05;;;5.10;;
10957;SDS011;5531;42.570;23.676;2023-08-06T04:47:35;243.98;;;12.13;;
10957;SDS011;5531;42.570;23.676;2023-08-06T04:50:04;97.28;;;7.40;;
10957;SDS011;5531;42.570;23.676;2023-08-06T04:52:32;5.65;;;5.15;;
10957;SDS011;5531;42.570;23.676;2023-08-06T04:55:01;5.10;;;4.60;;
10957;SDS011;5531;42.570;23.676;2023-08-06T04:57:31;8.02;;;4.20;;
10957;SDS011;5531;42.570;23.676;2023-08-06T05:00:00;6.05;;;4.03;;
10957;SDS011;5531;42.570;23.676;2023-08-06T05:02:32;4.75;;;4.15;;
10957;SDS011;5531;42.570;23.676;2023-08-06T05:05:03;3.75;;;3.40;;
10957;SDS011;5531;42.570;23.676;2023-08-06T05:07:32;3.35;;;3.05;;
10957;SDS011;5531;42.570;23.676;2023-08-06T05:10:01;4.68;;;3.75;;
10957;SDS011;5531;42.570;23.676;2023-08-06T05:12:29;3.88;;;3.58;;
10957;SDS011;5531;42.570;23.676;2023-08-06T05:14:58;4.10;;;3.55;;
10957;SDS011;5531;42.570;23.676;2023-08-06T05:17:27;4.40;;;3.85;;
10957;SDS011;5531;42.570;23.676;2023-08-06T05:19:58;4.97;;;4.50;;
10957;SDS011;5531;42.570;23.676;2023-08-06T05:22:26;4.72;;;4.20;;
10957;SDS011;5531;42.570;23.676;2023-08-06T05:24:55;4.60;;;4.20;;
10957;SDS011;5531;42.570;23.676;2023-08-06T05:27:24;5.38;;;4.70;;
10957;SDS011;5531;42.570;23.676;2023-08-06T05:29:54;5.18;;;4.25;;
10957;SDS011;5531;42.570;23.676;2023-08-06T05:32:23;4.93;;;4.53;;
10957;SDS011;5531;42.570;23.676;2023-08-06T05:34:52;4.78;;;4.30;;
10957;SDS011;5531;42.570;23.676;2023-08-06T05:37:23;4.82;;;4.43;;
10957;SDS011;5531;42.570;23.676;2023-08-06T05:39:51;5.20;;;4.78;;
10957;SDS011;5531;42.570;23.676;2023-08-06T05:42:20;5.13;;;4.63;;
10957;SDS011;5531;42.570;23.676;2023-08-06T05:44:48;5.90;;;5.40;;
10957;SDS011;5531;42.570;23.676;2023-08-06T05:47:17;6.22;;;5.53;;
10957;SDS011;5531;42.570;23.676;2023-08-06T05:49:46;76.70;;;8.57;;
10957;SDS011;5531;42.570;23.676;2023-08-06T05:52:14;19.80;;;6.50;;
10957;SDS011;5531;42.570;23.676;2023-08-06T05:54:46;5.93;;;5.40;;
10957;SDS011;5531;42.570;23.676;2023-08-06T05:57:14;6.60;;;6.10;;
10957;SDS011;5531;42.570;23.676;2023-08-06T05:59:43;30.15;;;7.82;;
10957;SDS011;5531;42.570;23.676;2023-08-06T06:02:11;10.43;;;8.18;;
10957;SDS011;5531;42.570;23.676;2023-08-06T06:04:40;42.65;;;9.65;;
10957;SDS011;5531;42.570;23.676;2023-08-06T06:07:09;177.93;;;14.40;;
10957;SDS011;5531;42.570;23.676;2023-08-06T06:09:37;149.43;;;13.80;;
10957;SDS011;5531;42.570;23.676;2023-08-06T06:12:09;18.65;;;8.70;;
10957;SDS011;5531;42.570;23.676;2023-08-06T06:14:37;9.23;;;8.32;;
10957;SDS011;5531;42.570;23.676;2023-08-06T06:17:06;9.10;;;8.23;;
10957;SDS011;5531;42.570;23.676;2023-08-06T06:19:35;21.63;;;8.75;;
10957;SDS011;5531;42.570;23.676;2023-08-06T06:22:04;62.38;;;9.70;;
10957;SDS011;5531;42.570;23.676;2023-08-06T06:24:32;30.25;;;8.73;;
10957;SDS011;5531;42.570;23.676;2023-08-06T06:27:01;8.95;;;8.10;;
10957;SDS011;5531;42.570;23.676;2023-08-06T06:29:32;8.68;;;7.82;;
10957;SDS011;5531;42.570;23.676;2023-08-06T06:32:01;10.18;;;9.13;;
10957;SDS011;5531;42.570;23.676;2023-08-06T06:34:29;12.43;;;9.55;;
10957;SDS011;5531;42.570;23.676;2023-08-06T06:36:58;14.35;;;13.05;;
10957;SDS011;5531;42.570;23.676;2023-08-06T06:39:26;21.52;;;15.25;;
10957;SDS011;5531;42.570;23.676;2023-08-06T06:41:55;109.57;;;16.25;;
10957;SDS011;5531;42.570;23.676;2023-08-06T06:44:23;221.38;;;23.02;;
10957;SDS011;5531;42.570;23.676;2023-08-06T06:46:55;18.83;;;17.08;;
10957;SDS011;5531;42.570;23.676;2023-08-06T06:49:23;23.38;;;18.10;;
10957;SDS011;5531;42.570;23.676;2023-08-06T06:51:52;92.60;;;20.27;;
10957;SDS011;5531;42.570;23.676;2023-08-06T06:54:20;36.22;;;18.65;;
10957;SDS011;5531;42.570;23.676;2023-08-06T06:56:49;152.63;;;22.98;;
10957;SDS011;5531;42.570;23.676;2023-08-06T06:59:17;46.10;;;19.15;;
10957;SDS011;5531;42.570;23.676;2023-08-06T07:01:46;20.52;;;18.67;;
10957;SDS011;5531;42.570;23.676;2023-08-06T07:04:17;35.97;;;18.27;;
10957;SDS011;5531;42.570;23.676;2023-08-06T07:06:46;28.17;;;17.02;;
10957;SDS011;5531;42.570;23.676;2023-08-06T07:09:17;16.52;;;14.93;;
10957;SDS011;5531;42.570;23.676;2023-08-06T07:11:45;12.65;;;11.65;;
10957;SDS011;5531;42.570;23.676;2023-08-06T07:14:14;10.05;;;9.05;;
10957;SDS011;5531;42.570;23.676;2023-08-06T07:16:43;9.60;;;8.80;;
10957;SDS011;5531;42.570;23.676;2023-08-06T07:19:11;8.52;;;7.78;;
10957;SDS011;5531;42.570;23.676;2023-08-06T07:21:42;9.75;;;8.85;;
10957;SDS011;5531;42.570;23.676;2023-08-06T07:24:11;8.05;;;7.25;;
10957;SDS011;5531;42.570;23.676;2023-08-06T07:26:40;8.13;;;6.75;;
10957;SDS011;5531;42.570;23.676;2023-08-06T07:29:08;7.25;;;6.63;;
10957;SDS011;5531;42.570;23.676;2023-08-06T07:31:37;7.68;;;6.93;;
10957;SDS011;5531;42.570;23.676;2023-08-06T07:34:06;8.27;;;7.47;;
10957;SDS011;5531;42.570;23.676;2023-08-06T07:36:34;6.57;;;5.97;;
10957;SDS011;5531;42.570;23.676;2023-08-06T07:39:06;6.43;;;5.82;;
10957;SDS011;5531;42.570;23.676;2023-08-06T07:41:35;5.93;;;5.40;;
10957;SDS011;5531;42.570;23.676;2023-08-06T07:44:04;5.72;;;5.15;;
10957;SDS011;5531;42.570;23.676;2023-08-06T07:46:33;4.45;;;4.13;;
10957;SDS011;5531;42.570;23.676;2023-08-06T07:49:01;4.82;;;4.28;;
10957;SDS011;5531;42.570;23.676;2023-08-06T07:51:30;4.65;;;4.25;;
10957;SDS011;5531;42.570;23.676;2023-08-06T07:53:59;4.70;;;4.30;;
10957;SDS011;5531;42.570;23.676;2023-08-06T07:56:30;4.82;;;4.25;;
10957;SDS011;5531;42.570;23.676;2023-08-06T07:58:58;4.20;;;3.63;;
10957;SDS011;5531;42.570;23.676;2023-08-06T08:01:27;4.15;;;3.75;;
10957;SDS011;5531;42.570;23.676;2023-08-06T08:03:56;4.40;;;3.60;;
10957;SDS011;5531;42.570;23.676;2023-08-06T08:06:24;3.80;;;3.50;;
10957;SDS011;5531;42.570;23.676;2023-08-06T08:08:53;3.97;;;3.58;;
10957;SDS011;5531;42.570;23.676;2023-08-06T08:11:21;4.22;;;3.83;;
10957;SDS011;5531;42.570;23.676;2023-08-06T08:13:53;4.47;;;4.07;;
10957;SDS011;5531;42.570;23.676;2023-08-06T08:16:21;5.80;;;4.10;;
10957;SDS011;5531;42.570;23.676;2023-08-06T08:18:50;4.80;;;4.40;;
10957;SDS011;5531;42.570;23.676;2023-08-06T08:21:18;4.88;;;4.47;;
10957;SDS011;5531;42.570;23.676;2023-08-06T08:23:49;4.93;;;4.40;;
10957;SDS011;5531;42.570;23.676;2023-08-06T08:26:18;4.35;;;4.05;;
10957;SDS011;5531;42.570;23.676;2023-08-06T08:28:46;7.05;;;4.70;;
10957;SDS011;5531;42.570;23.676;2023-08-06T08:31:18;5.47;;;4.50;;
10957;SDS011;5531;42.570;23.676;2023-08-06T08:33:46;5.75;;;4.43;;
10957;SDS011;5531;42.570;23.676;2023-08-06T08:36:15;4.55;;;4.15;;
10957;SDS011;5531;42.570;23.676;2023-08-06T08:38:43;5.20;;;4.00;;
10957;SDS011;5531;42.570;23.676;2023-08-06T08:41:12;4.72;;;3.80;;
10957;SDS011;5531;42.570;23.676;2023-08-06T08:43:41;3.70;;;3.40;;
10957;SDS011;5531;42.570;23.676;2023-08-06T08:46:10;5.38;;;3.20;;
10957;SDS011;5531;42.570;23.676;2023-08-06T08:48:43;4.57;;;3.38;;
10957;SDS011;5531;42.570;23.676;2023-08-06T08:51:11;4.57;;;3.10;;
10957;SDS011;5531;42.570;23.676;2023-08-06T08:53:41;4.05;;;3.63;;
10957;SDS011;5531;42.570;23.676;2023-08-06T08:56:11;3.22;;;2.92;;
10957;SDS011;5531;42.570;23.676;2023-08-06T08:58:41;3.70;;;3.30;;
10957;SDS011;5531;42.570;23.676;2023-08-06T09:01:09;3.67;;;3.38;;
10957;SDS011;5531;42.570;23.676;2023-08-06T09:03:38;3.90;;;3.33;;
10957;SDS011;5531;42.570;23.676;2023-08-06T09:06:10;4.03;;;3.45;;
10957;SDS011;5531;42.570;23.676;2023-08-06T09:08:41;3.80;;;3.50;;
10957;SDS011;5531;42.570;23.676;2023-08-06T09:11:10;4.00;;;3.60;;
10957;SDS011;5531;42.570;23.676;2023-08-06T09:13:38;4.55;;;3.58;;
10957;SDS011;5531;42.570;23.676;2023-08-06T09:16:07;4.43;;;3.78;;
10957;SDS011;5531;42.570;23.676;2023-08-06T09:18:35;4.28;;;3.50;;
10957;SDS011;5531;42.570;23.676;2023-08-06T09:21:07;4.53;;;3.42;;
10957;SDS011;5531;42.570;23.676;2023-08-06T09:23:44;3.80;;;3.50;;
10957;SDS011;5531;42.570;23.676;2023-08-06T09:26:12;3.83;;;3.35;;
10957;SDS011;5531;42.570;23.676;2023-08-06T09:28:41;3.83;;;3.42;;
10957;SDS011;5531;42.570;23.676;2023-08-06T09:31:10;3.70;;;3.40;;
10957;SDS011;5531;42.570;23.676;2023-08-06T09:33:39;5.53;;;3.40;;
10957;SDS011;5531;42.570;23.676;2023-08-06T09:36:09;4.00;;;3.55;;
10957;SDS011;5531;42.570;23.676;2023-08-06T09:38:38;4.20;;;3.35;;
10957;SDS011;5531;42.570;23.676;2023-08-06T09:41:10;3.90;;;3.60;;
10957;SDS011;5531;42.570;23.676;2023-08-06T09:43:39;4.00;;;3.70;;
10957;SDS011;5531;42.570;23.676;2023-08-06T09:46:12;4.00;;;3.60;;
10957;SDS011;5531;42.570;23.676;2023-08-06T09:48:44;4.13;;;3.72;;
10957;SDS011;5531;42.570;23.676;2023-08-06T09:51:13;4.07;;;3.55;;
10957;SDS011;5531;42.570;23.676;2023-08-06T09:53:42;5.82;;;3.30;;
10957;SDS011;5531;42.570;23.676;2023-08-06T09:56:13;3.50;;;3.20;;
10957;SDS011;5531;42.570;23.676;2023-08-06T09:58:42;4.03;;;3.70;;
10957;SDS011;5531;42.570;23.676;2023-08-06T10:01:11;3.70;;;3.40;;
10957;SDS011;5531;42.570;23.676;2023-08-06T10:03:40;4.05;;;3.65;;
10957;SDS011;5531;42.570;23.676;2023-08-06T10:06:09;4.20;;;3.40;;
10957;SDS011;5531;42.570;23.676;2023-08-06T10:08:38;4.55;;;3.33;;
10957;SDS011;5531;42.570;23.676;2023-08-06T10:11:07;3.95;;;3.35;;
10957;SDS011;5531;42.570;23.676;2023-08-06T10:13:40;3.97;;;3.30;;
10957;SDS011;5531;42.570;23.676;2023-08-06T10:16:09;4.35;;;3.50;;
10957;SDS011;5531;42.570;23.676;2023-08-06T10:18:38;3.50;;;3.20;;
10957;SDS011;5531;42.570;23.676;2023-08-06T10:21:07;4.10;;;3.08;;
10957;SDS011;5531;42.570;23.676;2023-08-06T10:23:36;2.67;;;2.47;;
10957;SDS011;5531;42.570;23.676;2023-08-06T10:26:05;3.30;;;3.00;;
10957;SDS011;5531;42.570;23.676;2023-08-06T10:28:34;3.38;;;2.90;;
10957;SDS011;5531;42.570;23.676;2023-08-06T10:31:07;3.22;;;2.95;;
10957;SDS011;5531;42.570;23.676;2023-08-06T10:33:41;3.50;;;3.20;;
10957;SDS011;5531;42.570;23.676;2023-08-06T10:36:11;5.97;;;3.08;;
10957;SDS011;5531;42.570;23.676;2023-08-06T10:38:43;3.70;;;2.58;;
10957;SDS011;5531;42.570;23.676;2023-08-06T10:41:16;3.13;;;2.83;;
10957;SDS011;5531;42.570;23.676;2023-08-06T10:43:45;4.35;;;2.85;;
10957;SDS011;5531;42.570;23.676;2023-08-06T10:46:26;2.83;;;2.63;;
10957;SDS011;5531;42.570;23.676;2023-08-06T10:48:55;3.08;;;2.80;;
10957;SDS011;5531;42.570;23.676;2023-08-06T10:51:24;3.03;;;2.40;;
10957;SDS011;5531;42.570;23.676;2023-08-06T10:53:53;2.50;;;2.30;;
10957;SDS011;5531;42.570;23.676;2023-08-06T10:56:24;3.13;;;2.30;;
10957;SDS011;5531;42.570;23.676;2023-08-06T10:58:53;3.03;;;2.42;;
10957;SDS011;5531;42.570;23.676;2023-08-06T11:01:26;2.97;;;2.78;;
10957;SDS011;5531;42.570;23.676;2023-08-06T11:04:00;2.92;;;2.30;;
10957;SDS011;5531;42.570;23.676;2023-08-06T11:06:30;3.47;;;2.30;;
10957;SDS011;5531;42.570;23.676;2023-08-06T11:08:59;4.32;;;2.33;;
10957;SDS011;5531;42.570;23.676;2023-08-06T11:11:27;2.53;;;2.05;;
10957;SDS011;5531;42.570;23.676;2023-08-06T11:13:56;2.22;;;2.03;;
10957;SDS011;5531;42.570;23.676;2023-08-06T11:16:27;3.00;;;2.30;;
10957;SDS011;5531;42.570;23.676;2023-08-06T11:18:56;3.40;;;2.47;;
10957;SDS011;5531;42.570;23.676;2023-08-06T11:21:25;2.75;;;2.53;;
10957;SDS011;5531;42.570;23.676;2023-08-06T11:23:55;3.28;;;2.35;;
10957;SDS011;5531;42.570;23.676;2023-08-06T11:26:23;3.55;;;2.63;;
10957;SDS011;5531;42.570;23.676;2023-08-06T11:28:53;3.00;;;2.60;;
10957;SDS011;5531;42.570;23.676;2023-08-06T11:31:21;3.28;;;2.50;;
10957;SDS011;5531;42.570;23.676;2023-08-06T11:33:53;4.05;;;2.75;;
10957;SDS011;5531;42.570;23.676;2023-08-06T11:36:31;3.20;;;2.53;;
10957;SDS011;5531;42.570;23.676;2023-08-06T11:38:59;2.85;;;2.50;;
10957;SDS011;5531;42.570;23.676;2023-08-06T11:41:29;4.80;;;2.60;;
10957;SDS011;5531;42.570;23.676;2023-08-06T11:43:58;2.67;;;2.47;;
10957;SDS011;5531;42.570;23.676;2023-08-06T11:46:26;2.88;;;2.58;;
10957;SDS011;5531;42.570;23.676;2023-08-06T11:48:58;3.90;;;2.53;;
10957;SDS011;5531;42.570;23.676;2023-08-06T11:51:27;3.45;;;2.85;;
10957;SDS011;5531;42.570;23.676;2023-08-06T11:53:55;3.28;;;3.00;;
10957;SDS011;5531;42.570;23.676;2023-08-06T11:56:24;5.40;;;2.70;;
10957;SDS011;5531;42.570;23.676;2023-08-06T11:58:54;3.40;;;2.80;;
10957;SDS011;5531;42.570;23.676;2023-08-06T12:01:23;4.78;;;3.00;;
10957;SDS011;5531;42.570;23.676;2023-08-06T12:03:52;3.35;;;2.88;;
10957;SDS011;5531;42.570;23.676;2023-08-06T12:06:26;3.25;;;2.95;;
10957;SDS011;5531;42.570;23.676;2023-08-06T12:08:55;3.47;;;3.10;;
10957;SDS011;5531;42.570;23.676;2023-08-06T12:11:23;3.75;;;3.05;;
10957;SDS011;5531;42.570;23.676;2023-08-06T12:13:52;3.78;;;2.90;;
10957;SDS011;5531;42.570;23.676;2023-08-06T12:16:22;3.47;;;2.97;;
10957;SDS011;5531;42.570;23.676;2023-08-06T12:18:50;3.33;;;3.08;;
10957;SDS011;5531;42.570;23.676;2023-08-06T12:21:19;4.25;;;3.08;;
10957;SDS011;5531;42.570;23.676;2023-08-06T12:23:50;3.15;;;2.58;;
10957;SDS011;5531;42.570;23.676;2023-08-06T12:26:19;2.65;;;2.45;;
10957;SDS011;5531;42.570;23.676;2023-08-06T12:28:47;2.63;;;2.38;;
10957;SDS011;5531;42.570;23.676;2023-08-06T12:31:16;3.30;;;2.63;;
10957;SDS011;5531;42.570;23.676;2023-08-06T12:33:44;2.85;;;2.58;;
10957;SDS011;5531;42.570;23.676;2023-08-06T12:36:13;4.22;;;2.70;;
10957;SDS011;5531;42.570;23.676;2023-08-06T12:38:42;3.10;;;2.80;;
10957;SDS011;5531;42.570;23.676;2023-08-06T12:41:13;2.90;;;2.60;;
10957;SDS011;5531;42.570;23.676;2023-08-06T12:43:41;3.95;;;2.60;;
10957;SDS011;5531;42.570;23.676;2023-08-06T12:46:10;3.83;;;2.90;;
10957;SDS011;5531;42.570;23.676;2023-08-06T12:48:39;3.53;;;3.10;;
10957;SDS011;5531;42.570;23.676;2023-08-06T12:51:07;3.83;;;3.10;;
10957;SDS011;5531;42.570;23.676;2023-08-06T12:53:36;3.95;;;3.25;;
10957;SDS011;5531;42.570;23.676;2023-08-06T12:56:04;3.50;;;3.20;;
10957;SDS011;5531;42.570;23.676;2023-08-06T12:58:36;3.30;;;3.00;;
10957;SDS011;5531;42.570;23.676;2023-08-06T13:01:05;3.30;;;3.00;;
10957;SDS011;5531;42.570;23.676;2023-08-06T13:03:33;3.50;;;3.20;;
10957;SDS011;5531;42.570;23.676;2023-08-06T13:06:02;4.30;;;3.25;;
10957;SDS011;5531;42.570;23.676;2023-08-06T13:08:31;3.97;;;3.38;;
10957;SDS011;5531;42.570;23.676;2023-08-06T13:10:59;3.70;;;3.40;;
10957;SDS011;5531;42.570;23.676;2023-08-06T13:13:28;4.20;;;3.80;;
10957;SDS011;5531;42.570;23.676;2023-08-06T13:15:59;4.20;;;3.80;;
10957;SDS011;5531;42.570;23.676;2023-08-06T13:18:28;4.28;;;3.80;;
10957;SDS011;5531;42.570;23.676;2023-08-06T13:20:56;4.35;;;3.95;;
10957;SDS011;5531;42.570;23.676;2023-08-06T13:23:25;8.15;;;3.95;;
10957;SDS011;5531;42.570;23.676;2023-08-06T13:25:53;5.15;;;4.20;;
10957;SDS011;5531;42.570;23.676;2023-08-06T13:28:22;4.45;;;4.13;;
10957;SDS011;5531;42.570;23.676;2023-08-06T13:30:50;4.10;;;3.60;;
10957;SDS011;5531;42.570;23.676;2023-08-06T13:33:22;4.30;;;3.92;;
10957;SDS011;5531;42.570;23.676;2023-08-06T13:35:52;4.75;;;4.15;;
10957;SDS011;5531;42.570;23.676;2023-08-06T13:38:20;4.28;;;3.83;;
10957;SDS011;5531;42.570;23.676;2023-08-06T13:40:49;4.10;;;3.80;;
10957;SDS011;5531;42.570;23.676;2023-08-06T13:43:17;4.07;;;3.78;;
10957;SDS011;5531;42.570;23.676;2023-08-06T13:45:46;5.05;;;3.80;;
10957;SDS011;5531;42.570;23.676;2023-08-06T13:48:15;4.30;;;3.90;;
10957;SDS011;5531;42.570;23.676;2023-08-06T13:50:46;4.72;;;4.10;;
10957;SDS011;5531;42.570;23.676;2023-08-06T13:53:14;4.32;;;3.92;;
10957;SDS011;5531;42.570;23.676;2023-08-06T13:55:43;4.47;;;3.97;;
10957;SDS011;5531;42.570;23.676;2023-08-06T13:58:12;4.15;;;3.78;;
10957;SDS011;5531;42.570;23.676;2023-08-06T14:00:40;4.80;;;4.40;;
10957;SDS011;5531;42.570;23.676;2023-08-06T14:03:09;5.35;;;4.28;;
10957;SDS011;5531;42.570;23.676;2023-08-06T14:05:37;5.50;;;4.00;;
10957;SDS011;5531;42.570;23.676;2023-08-06T14:08:09;4.13;;;3.70;;
10957;SDS011;5531;42.570;23.676;2023-08-06T14:10:39;5.40;;;3.95;;
10957;SDS011;5531;42.570;23.676;2023-08-06T14:13:07;5.05;;;4.30;;
10957;SDS011;5531;42.570;23.676;2023-08-06T14:15:36;4.63;;;4.22;;
10957;SDS011;5531;42.570;23.676;2023-08-06T14:18:06;5.00;;;4.18;;
10957;SDS011;5531;42.570;23.676;2023-08-06T14:20:35;7.70;;;4.15;;
10957;SDS011;5531;42.570;23.676;2023-08-06T14:23:03;4.82;;;4.30;;
10957;SDS011;5531;42.570;23.676;2023-08-06T14:25:35;4.63;;;4.22;;
10957;SDS011;5531;42.570;23.676;2023-08-06T14:28:03;5.25;;;4.00;;
10957;SDS011;5531;42.570;23.676;2023-08-06T14:30:32;5.07;;;4.15;;
10957;SDS011;5531;42.570;23.676;2023-08-06T14:33:01;4.57;;;4.18;;
10957;SDS011;5531;42.570;23.676;2023-08-06T14:35:30;4.68;;;4.28;;
10957;SDS011;5531;42.570;23.676;2023-08-06T14:37:58;4.95;;;4.45;;
10957;SDS011;5531;42.570;23.676;2023-08-06T14:40:27;6.50;;;4.20;;
10957;SDS011;5531;42.570;23.676;2023-08-06T14:43:02;6.32;;;4.63;;
10957;SDS011;5531;42.570;23.676;2023-08-06T14:45:30;4.55;;;4.15;;
10957;SDS011;5531;42.570;23.676;2023-08-06T14:47:59;4.97;;;4.00;;
10957;SDS011;5531;42.570;23.676;2023-08-06T14:50:27;6.05;;;3.90;;
10957;SDS011;5531;42.570;23.676;2023-08-06T14:52:56;5.03;;;3.85;;
10957;SDS011;5531;42.570;23.676;2023-08-06T14:55:26;4.40;;;4.00;;
10957;SDS011;5531;42.570;23.676;2023-08-06T14:57:55;5.40;;;4.20;;